Time;durP1;ratioP1;P1;durP2;ratioP2;P2;SDS_P1;SDS_P2;PMS_P1;PMS_P2;Temp;Humidity;BMP_temperature;BMP_pressure;BME280_temperature;BME280_humidity;BME280_pressure;Samples;Min_cycle;Max_cycle;Signal;HPM_P1;HPM_P2
2022/05/10 00:01:33;;;;;;;5.03;4.35;;;;;;;14.39;100.00;100925.97;5146425;27;20106;-47
2022/05/10 00:04:00;;;;;;;5.68;3.67;;;;;;;14.37;100.00;100909.34;5144308;27;20022;-48
2022/05/10 00:06:29;;;;;;;7.55;4.18;;;;;;;14.36;100.00;100901.56;5147261;27;20054;-50
2022/05/10 00:08:54;;;;;;;8.63;4.80;;;;;;;14.32;100.00;100897.66;5146863;27;20050;-54
2022/05/10 00:11:20;;;;;;;10.23;5.85;;;;;;;14.29;100.00;100890.88;5144226;27;20550;-48
2022/05/10 00:13:46;;;;;;;5.82;4.68;;;;;;;14.28;100.00;100891.09;5146363;27;20023;-46
2022/05/10 00:16:14;;;;;;;5.47;4.07;;;;;;;14.26;100.00;100885.97;5143925;27;20114;-51
2022/05/10 00:18:41;;;;;;;9.32;4.90;;;;;;;14.24;100.00;100884.53;5141026;27;20462;-50
2022/05/10 00:21:08;;;;;;;8.10;4.72;;;;;;;14.22;100.00;100875.91;5147990;27;20409;-47
2022/05/10 00:23:33;;;;;;;12.05;5.25;;;;;;;14.21;100.00;100864.44;5147596;27;20026;-54
2022/05/10 00:25:59;;;;;;;6.90;5.10;;;;;;;14.20;100.00;100854.78;5148312;27;20034;-47
2022/05/10 00:28:24;;;;;;;7.63;4.00;;;;;;;14.17;100.00;100855.19;5146985;27;20079;-50
2022/05/10 00:30:50;;;;;;;6.45;4.10;;;;;;;14.15;100.00;100858.06;5148850;27;20064;-46
2022/05/10 00:33:21;;;;;;;7.63;4.75;;;;;;;14.15;100.00;100860.75;5130989;27;20095;-48
2022/05/10 00:35:47;;;;;;;9.82;4.90;;;;;;;14.13;100.00;100861.97;5148020;27;20034;-49
2022/05/10 00:38:12;;;;;;;14.95;4.97;;;;;;;14.12;100.00;100863.81;5143172;27;20023;-51
2022/05/10 00:40:38;;;;;;;8.07;4.75;;;;;;;14.12;100.00;100858.50;5149667;27;20034;-50
2022/05/10 00:43:09;;;;;;;9.93;4.50;;;;;;;14.13;100.00;100853.97;5147019;27;20171;-47
2022/05/10 00:45:49;;;;;;;9.13;4.75;;;;;;;14.09;100.00;100863.41;5150274;27;20177;-48
2022/05/10 00:48:26;;;;;;;6.38;4.40;;;;;;;14.05;100.00;100854.19;5148684;27;20372;-49
2022/05/10 00:51:10;;;;;;;7.85;4.88;;;;;;;14.01;100.00;100861.75;5150345;27;20027;-52
2022/05/10 00:53:48;;;;;;;10.60;5.30;;;;;;;14.02;100.00;100855.41;5149945;27;20062;-48
2022/05/10 00:56:50;;;;;;;9.23;4.97;;;;;;;14.01;100.00;100845.75;5149439;27;20026;-50
2022/05/10 00:59:20;;;;;;;7.65;5.22;;;;;;;13.99;100.00;100844.31;5148650;27;20043;-47
2022/05/10 01:01:51;;;;;;;6.13;3.53;;;;;;;13.95;100.00;100841.25;5140670;27;20394;-46
2022/05/10 01:04:34;;;;;;;8.27;5.45;;;;;;;13.95;100.00;100846.56;5127739;27;20130;-47
2022/05/10 01:07:05;;;;;;;7.57;5.78;;;;;;;13.95;100.00;100838.59;5146385;27;20090;-45
2022/05/10 01:10:13;;;;;;;5.45;4.90;;;;;;;13.96;100.00;100837.53;5135594;27;20031;-49
2022/05/10 01:12:47;;;;;;;11.43;6.88;;;;;;;13.97;100.00;100841.88;5136088;27;20053;-48
2022/05/10 01:15:16;;;;;;;8.85;4.82;;;;;;;13.96;100.00;100842.88;5148368;27;20034;-46
2022/05/10 01:17:43;;;;;;;8.35;5.10;;;;;;;13.92;100.00;100831.00;5148674;27;20400;-48
2022/05/10 01:20:10;;;;;;;8.52;5.70;;;;;;;13.93;100.00;100827.28;5136603;27;20035;-49
2022/05/10 01:22:54;;;;;;;8.93;5.22;;;;;;;13.94;100.00;100828.97;5142295;27;20027;-51
2022/05/10 01:25:29;;;;;;;10.93;6.32;;;;;;;13.93;100.00;100821.97;5142633;27;20027;-47
2022/05/10 01:28:22;;;;;;;8.57;6.05;;;;;;;13.91;100.00;100819.53;5146266;27;20026;-47
2022/05/10 01:30:49;;;;;;;6.68;5.45;;;;;;;13.88;100.00;100816.44;5140419;27;20428;-47
2022/05/10 01:33:30;;;;;;;11.00;5.78;;;;;;;13.89;100.00;100808.25;5149555;27;20030;-50
2022/05/10 01:36:16;;;;;;;7.50;5.85;;;;;;;13.86;100.00;100808.66;5146464;27;20026;-48
2022/05/10 01:39:04;;;;;;;10.27;5.18;;;;;;;13.87;100.00;100806.81;5135258;27;20099;-50
2022/05/10 01:41:49;;;;;;;8.18;5.65;;;;;;;13.86;100.00;100807.81;5144171;27;20031;-53
2022/05/10 01:44:37;;;;;;;8.82;5.57;;;;;;;13.84;100.00;100799.22;5147512;27;20397;-49
2022/05/10 01:47:15;;;;;;;8.13;4.65;;;;;;;13.83;100.00;100794.91;5135555;27;20031;-45
2022/05/10 01:49:46;;;;;;;12.15;4.97;;;;;;;13.81;100.00;100788.94;5146916;27;20091;-49
2022/05/10 01:52:16;;;;;;;;;;;;;;;13.78;100.00;100792.03;5149642;27;20023;-49
2022/05/10 01:54:41;;;;;;;8.88;4.03;;;;;;;13.74;100.00;100786.28;5143963;27;19970;-54
2022/05/10 01:57:13;;;;;;;9.60;4.95;;;;;;;13.74;100.00;100779.13;5150766;27;20050;-49
2022/05/10 01:59:48;;;;;;;9.15;4.38;;;;;;;13.73;100.00;100773.97;5152394;27;20106;-51
2022/05/10 02:02:15;;;;;;;8.30;5.07;;;;;;;13.70;100.00;100753.06;5147181;27;20064;-47
2022/05/10 02:04:44;;;;;;;6.55;5.13;;;;;;;13.67;100.00;100756.16;5151749;27;20390;-45
2022/05/10 02:07:18;;;;;;;8.07;4.68;;;;;;;13.70;100.00;100775.19;5149300;27;20055;-46
2022/05/10 02:10:02;;;;;;;10.50;5.68;;;;;;;13.73;100.00;100781.97;5142081;27;20023;-46
2022/05/10 02:12:42;;;;;;;8.85;5.25;;;;;;;13.72;100.00;100781.16;5149575;27;20037;-48
2022/05/10 02:15:21;;;;;;;6.15;5.45;;;;;;;13.69;100.00;100780.75;5138448;27;20039;-46
2022/05/10 02:17:53;;;;;;;12.10;5.53;;;;;;;13.64;100.00;100770.69;5149205;27;20026;-48
2022/05/10 02:20:46;;;;;;;8.07;4.25;;;;;;;13.62;100.00;100771.94;5148596;27;20039;-47
2022/05/10 02:23:30;;;;;;;5.45;3.83;;;;;;;13.66;100.00;100774.00;5143958;27;20125;-47
2022/05/10 02:26:10;;;;;;;6.25;4.28;;;;;;;13.66;100.00;100763.34;5141240;27;20053;-50
2022/05/10 02:28:59;;;;;;;8.50;4.63;;;;;;;13.67;100.00;100756.16;5146229;27;20030;-49
2022/05/10 02:33:06;;;;;;;4.97;3.05;;;;;;;13.65;100.00;100740.34;5134685;27;20281;-48
2022/05/10 02:34:22;;;;;;;6.43;3.65;;;;;;;13.59;100.00;100741.19;5144002;27;20034;-51
2022/05/10 02:36:47;;;;;;;8.60;3.60;;;;;;;13.58;100.00;100744.88;5150379;27;20054;-50
2022/05/10 02:39:13;;;;;;;6.38;3.90;;;;;;;13.61;100.00;100736.47;5141235;27;20073;-46
2022/05/10 02:41:38;;;;;;;6.22;3.92;;;;;;;13.61;100.00;100728.50;5149924;27;20042;-47
2022/05/10 02:44:04;;;;;;;5.43;2.70;;;;;;;13.60;100.00;100718.84;5146981;27;20016;-46
2022/05/10 02:46:29;;;;;;;3.75;2.40;;;;;;;13.57;100.00;100719.25;5149076;27;20080;-52
2022/05/10 02:48:55;;;;;;;4.47;2.80;;;;;;;13.58;100.00;100720.91;5148913;27;20067;-48
2022/05/10 02:51:21;;;;;;;4.28;2.50;;;;;;;13.55;100.00;100707.97;5151678;27;20034;-50
2022/05/10 02:53:47;;;;;;;2.42;1.85;;;;;;;13.50;100.00;100721.09;5147863;27;20425;-49
2022/05/10 02:56:16;;;;;;;4.95;2.15;;;;;;;13.49;100.00;100719.47;5143660;27;20026;-50
2022/05/10 02:58:53;;;;;;;3.45;2.75;;;;;;;13.45;100.00;100713.72;5146400;27;20035;-47
2022/05/10 03:01:33;;;;;;;4.88;2.45;;;;;;;13.44;100.00;100720.06;5150749;27;20066;-48
2022/05/10 03:03:59;;;;;;;3.17;2.70;;;;;;;13.43;100.00;100710.44;5150472;27;20052;-49
2022/05/10 03:06:26;;;;;;;4.07;2.33;;;;;;;13.42;100.00;100710.63;5149090;27;20409;-49
2022/05/10 03:08:53;;;;;;;6.88;2.40;;;;;;;13.43;100.00;100710.44;5130115;27;20034;-46
2022/05/10 03:11:19;;;;;;;4.78;3.05;;;;;;;13.46;100.00;100711.88;5138363;27;20115;-49
2022/05/10 03:13:47;;;;;;;8.55;3.05;;;;;;;13.45;100.00;100704.91;5149628;27;20479;-49
2022/05/10 03:16:13;;;;;;;4.55;2.38;;;;;;;13.42;100.00;100703.47;5150637;27;20026;-48
2022/05/10 03:18:39;;;;;;;6.60;2.88;;;;;;;13.39;100.00;100708.38;5142799;27;20464;-47
2022/05/10 03:21:04;;;;;;;4.25;2.55;;;;;;;13.37;100.00;100707.78;5149195;27;20042;-50
2022/05/10 03:23:30;;;;;;;2.47;1.70;;;;;;;13.33;100.00;100703.88;5147187;27;20059;-53
2022/05/10 03:25:56;;;;;;;4.03;2.65;;;;;;;13.31;100.00;100704.06;5150009;27;20483;-46
2022/05/10 03:28:23;;;;;;;6.43;2.55;;;;;;;13.28;100.00;100707.97;5149328;27;20376;-49
2022/05/10 03:30:49;;;;;;;2.78;2.08;;;;;;;13.25;100.00;100707.53;5150431;27;20031;-50
2022/05/10 03:33:14;;;;;;;4.63;3.03;;;;;;;13.20;100.00;100702.81;5143311;27;20038;-47
2022/05/10 03:35:40;;;;;;;5.55;3.22;;;;;;;13.19;100.00;100703.00;5149120;27;20030;-47
2022/05/10 03:38:05;;;;;;;12.25;3.03;;;;;;;13.15;100.00;100702.59;5141737;27;20447;-49
2022/05/10 03:40:31;;;;;;;5.97;3.60;;;;;;;13.13;100.00;100701.97;5146575;27;20034;-46
2022/05/10 03:42:56;;;;;;;3.00;2.80;;;;;;;13.07;100.00;100695.63;5149292;27;20045;-47
2022/05/10 03:45:23;;;;;;;5.45;3.30;;;;;;;13.05;100.00;100695.00;5143607;27;20043;-48
2022/05/10 03:47:50;;;;;;;5.25;2.92;;;;;;;13.02;100.00;100691.94;5142799;27;20567;-45
2022/05/10 03:50:19;;;;;;;4.07;2.72;;;;;;;12.98;100.00;100691.50;5145803;27;20483;-46
2022/05/10 03:52:45;;;;;;;3.72;3.00;;;;;;;12.94;100.00;100695.59;5149023;27;20035;-48
2022/05/10 03:55:13;;;;;;;6.65;3.92;;;;;;;12.94;100.00;100687.63;5140495;27;20425;-49
2022/05/10 03:57:39;;;;;;;5.03;2.83;;;;;;;12.94;100.00;100678.81;5149959;27;20030;-49
2022/05/10 04:00:08;;;;;;;4.20;2.55;;;;;;;12.92;100.00;100686.19;5142283;27;20038;-52
2022/05/10 04:02:33;;;;;;;7.43;2.72;;;;;;;12.91;100.00;100689.84;5137730;27;20043;-47
2022/05/10 04:05:00;;;;;;;3.85;2.83;;;;;;;12.88;100.00;100691.91;5149840;27;20026;-51
2022/05/10 04:07:26;;;;;;;3.33;2.85;;;;;;;12.88;100.00;100686.59;5130365;27;20030;-51
2022/05/10 04:09:51;;;;;;;7.93;3.47;;;;;;;12.88;100.00;100696.38;5149183;27;20102;-52
2022/05/10 04:12:16;;;;;;;6.35;3.13;;;;;;;12.85;100.00;100694.94;5141234;27;20039;-47
2022/05/10 04:14:42;;;;;;;4.50;3.63;;;;;;;12.81;100.00;100688.41;5148230;27;20054;-49
2022/05/10 04:17:07;;;;;;;8.32;3.75;;;;;;;12.79;100.00;100692.28;5149484;27;20046;-53
2022/05/10 04:19:32;;;;;;;4.85;3.63;;;;;;;12.75;100.00;100685.72;5146385;27;20070;-50
2022/05/10 04:21:58;;;;;;;5.93;3.40;;;;;;;12.73;100.00;100679.78;5145414;27;20031;-48
2022/05/10 04:24:23;;;;;;;8.48;3.47;;;;;;;12.70;100.00;100691.66;5146156;27;20023;-46
2022/05/10 04:26:49;;;;;;;4.57;2.97;;;;;;;12.69;100.00;100681.19;5149073;27;20034;-48
2022/05/10 04:29:15;;;;;;;5.28;3.35;;;;;;;12.67;100.00;100678.72;5146318;27;20070;-50
2022/05/10 04:31:40;;;;;;;8.77;3.47;;;;;;;12.66;100.00;100683.22;5148652;27;20118;-50
2022/05/10 04:34:06;;;;;;;7.80;5.00;;;;;;;12.66;100.00;100696.53;5143527;27;20110;-48
2022/05/10 04:36:32;;;;;;;5.50;4.00;;;;;;;12.66;100.00;100693.06;5146691;27;20027;-49
2022/05/10 04:38:57;;;;;;;13.40;5.22;;;;;;;12.64;100.00;100695.91;5147403;27;20031;-48
2022/05/10 04:41:26;;;;;;;7.95;3.78;;;;;;;12.62;100.00;100694.47;5148822;27;20044;-49
2022/05/10 04:43:54;;;;;;;7.60;4.57;;;;;;;12.62;100.00;100708.59;5141240;27;20522;-46
2022/05/10 04:46:19;;;;;;;5.78;3.65;;;;;;;12.62;100.00;100707.75;5144708;27;20977;-46
2022/05/10 04:48:45;;;;;;;6.20;3.42;;;;;;;12.62;100.00;100705.09;5145820;27;20023;-46
2022/05/10 04:51:10;;;;;;;9.77;4.38;;;;;;;12.60;100.00;100704.50;5145539;27;20534;-45
2022/05/10 04:53:36;;;;;;;7.75;2.55;;;;;;;12.58;100.00;100707.34;5140789;27;20026;-45
2022/05/10 04:56:03;;;;;;;8.73;3.65;;;;;;;12.59;100.00;100713.47;5143052;27;20063;-49
2022/05/10 04:58:29;;;;;;;8.93;4.43;;;;;;;12.59;100.00;100713.47;5142330;27;20030;-48
2022/05/10 05:00:59;;;;;;;10.32;4.57;;;;;;;12.56;100.00;100720.03;5142614;27;20103;-49
2022/05/10 05:03:24;;;;;;;7.18;3.80;;;;;;;12.50;100.00;100718.16;5143849;27;20410;-47
2022/05/10 05:05:49;;;;;;;4.63;3.47;;;;;;;12.49;100.00;100735.13;5142746;27;20083;-50
2022/05/10 05:08:14;;;;;;;8.73;4.53;;;;;;;12.49;100.00;100737.78;5123030;27;20019;-50
2022/05/10 05:10:40;;;;;;;5.20;4.38;;;;;;;12.46;100.00;100738.19;5145023;27;20117;-46
2022/05/10 05:13:05;;;;;;;7.35;4.57;;;;;;;12.44;100.00;100741.06;5146882;27;20099;-50
2022/05/10 05:15:31;;;;;;;6.88;4.07;;;;;;;12.43;100.00;100738.59;5145906;27;20523;-48
2022/05/10 05:17:56;;;;;;;5.50;4.60;;;;;;;12.41;100.00;100737.94;5147368;27;20035;-48
2022/05/10 05:20:21;;;;;;;4.82;3.45;;;;;;;12.40;100.00;100742.44;5147485;27;20431;-55
2022/05/10 05:22:47;;;;;;;9.75;4.45;;;;;;;12.40;100.00;100742.44;5129165;27;20055;-50
2022/05/10 05:25:12;;;;;;;4.90;3.60;;;;;;;12.38;100.00;100738.34;5147019;27;20030;-48
2022/05/10 05:27:37;;;;;;;9.90;5.03;;;;;;;12.36;100.00;100754.47;5147137;27;20040;-53
2022/05/10 05:30:03;;;;;;;6.05;4.30;;;;;;;12.34;100.00;100750.38;5148415;27;20495;-49
2022/05/10 05:32:33;;;;;;;6.82;4.05;;;;;;;12.35;100.00;100760.84;5143236;27;20081;-49
2022/05/10 05:34:59;;;;;;;8.18;4.22;;;;;;;12.35;100.00;100758.19;5145689;27;20027;-52
2022/05/10 05:37:33;;;;;;;5.70;4.32;;;;;;;12.34;100.00;100759.19;5148684;27;20132;-49
2022/05/10 05:40:08;;;;;;;7.65;4.32;;;;;;;12.29;100.00;100758.97;5144321;27;20031;-46
2022/05/10 05:42:35;;;;;;;4.80;4.00;;;;;;;12.32;100.00;100765.72;5146225;27;20046;-50
2022/05/10 05:45:02;;;;;;;5.13;3.05;;;;;;;12.36;100.00;100757.16;5149643;27;20023;-49
2022/05/10 05:47:27;;;;;;;6.40;4.35;;;;;;;12.39;100.00;100762.09;5147271;27;20054;-47
2022/05/10 05:49:53;;;;;;;7.22;4.68;;;;;;;12.38;100.00;100765.75;5147877;27;20023;-46
2022/05/10 05:52:21;;;;;;;7.32;4.18;;;;;;;12.39;100.00;100763.91;5144327;27;20041;-48
2022/05/10 05:54:47;;;;;;;6.55;4.55;;;;;;;12.41;100.00;100761.88;5148524;27;20267;-48
2022/05/10 05:57:12;;;;;;;6.57;3.45;;;;;;;12.43;100.00;100768.66;5150788;27;20113;-52
2022/05/10 05:59:38;;;;;;;7.15;4.47;;;;;;;12.45;100.00;100771.13;5150169;27;20060;-50
2022/05/10 06:02:10;;;;;;;6.18;3.72;;;;;;;12.47;100.00;100763.78;5148877;27;20118;-48
2022/05/10 06:04:36;;;;;;;5.55;3.33;;;;;;;12.44;100.00;100767.66;5147320;27;20036;-48
2022/05/10 06:07:01;;;;;;;6.78;4.45;;;;;;;12.47;100.00;100762.94;5149271;27;20014;-46
2022/05/10 06:09:26;;;;;;;7.30;4.00;;;;;;;12.52;100.00;100771.13;5149694;27;20091;-49
2022/05/10 06:11:52;;;;;;;5.72;3.92;;;;;;;12.53;100.00;100768.28;5147290;27;20023;-48
2022/05/10 06:14:17;;;;;;;8.45;4.82;;;;;;;12.56;100.00;100769.75;5150684;27;20030;-46
2022/05/10 06:16:43;;;;;;;7.38;3.97;;;;;;;12.57;100.00;100772.22;5151962;27;20071;-53
2022/05/10 06:19:09;;;;;;;7.32;4.15;;;;;;;12.59;100.00;100764.03;5148659;27;20024;-51
2022/05/10 06:21:35;;;;;;;7.88;3.95;;;;;;;12.61;100.00;100764.66;5150764;27;20029;-54
2022/05/10 06:24:01;;;;;;;7.05;3.78;;;;;;;12.59;100.00;100772.81;5148823;27;20434;-49
2022/05/10 06:26:26;;;;;;;7.40;4.18;;;;;;;12.55;100.00;100771.59;5147512;27;20463;-47
2022/05/10 06:28:51;;;;;;;3.55;2.95;;;;;;;12.58;100.00;100775.69;5122548;27;20048;-50
2022/05/10 06:31:17;;;;;;;3.05;2.80;;;;;;;12.59;100.00;100777.31;5148514;27;20356;-49
2022/05/10 06:33:42;;;;;;;4.10;3.33;;;;;;;12.61;100.00;100769.97;5148297;27;20467;-51
2022/05/10 06:36:07;;;;;;;10.48;4.93;;;;;;;12.59;100.00;100770.16;5150949;27;20622;-46
2022/05/10 06:38:34;;;;;;;8.52;3.78;;;;;;;12.61;100.00;100776.09;5149894;27;20464;-49
2022/05/10 06:41:01;;;;;;;4.25;3.25;;;;;;;12.66;100.00;100771.03;5149891;27;20050;-48
2022/05/10 06:43:35;;;;;;;9.35;3.72;;;;;;;12.73;100.00;100775.56;5151482;27;20651;-52
2022/05/10 06:46:02;;;;;;;6.55;2.47;;;;;;;12.76;100.00;100767.19;5150648;27;20034;-49
2022/05/10 06:48:28;;;;;;;5.82;3.85;;;;;;;12.77;100.00;100769.63;5138083;27;20038;-50
2022/05/10 06:50:53;;;;;;;4.20;2.75;;;;;;;12.80;100.00;100766.59;5140528;27;20468;-48
2022/05/10 06:53:18;;;;;;;5.22;4.28;;;;;;;12.83;100.00;100768.84;5139344;27;20045;-51
2022/05/10 06:55:44;;;;;;;4.97;2.50;;;;;;;12.86;100.00;100763.13;5148128;27;20027;-46
2022/05/10 06:58:10;;;;;;;5.22;2.38;;;;;;;12.92;100.00;100766.00;5148966;27;20495;-49
2022/05/10 07:00:38;;;;;;;3.65;2.72;;;;;;;12.97;100.00;100763.56;5143744;27;20019;-48
2022/05/10 07:03:13;;;;;;;8.20;2.42;;;;;;;13.01;100.00;100755.00;5144304;27;20518;-48
2022/05/10 07:05:41;;;;;;;6.45;3.58;;;;;;;13.08;100.00;100757.66;5144688;27;20197;-53
2022/05/10 07:08:06;;;;;;;5.57;2.25;;;;;;;13.12;100.00;100766.09;5146991;27;20033;-49
2022/05/10 07:10:31;;;;;;;3.72;2.47;;;;;;;13.16;100.00;100751.34;5149683;27;20019;-47
2022/05/10 07:12:58;;;;;;;2.53;1.75;;;;;;;13.21;100.00;100746.22;5142697;27;20040;-50
2022/05/10 07:15:24;;;;;;;3.85;2.35;;;;;;;13.25;100.00;100753.63;5137758;27;21432;-49
2022/05/10 07:17:50;;;;;;;3.53;1.98;;;;;;;13.31;100.00;100755.50;5129593;27;20512;-46
2022/05/10 07:20:17;;;;;;;6.45;2.35;;;;;;;13.35;100.00;100745.28;5143540;27;20444;-47
2022/05/10 07:22:43;;;;;;;2.33;2.00;;;;;;;13.36;100.00;100746.09;5143385;27;20091;-49
2022/05/10 07:25:13;;;;;;;3.53;2.05;;;;;;;13.29;100.00;100746.91;5144618;27;20489;-49
2022/05/10 07:27:39;;;;;;;6.70;1.30;;;;;;;13.36;100.00;100746.09;5142129;27;20027;-49
2022/05/10 07:30:05;;;;;;;3.15;1.73;;;;;;;13.42;100.00;100748.75;5149013;27;20030;-52
2022/05/10 07:32:30;;;;;;;3.25;2.22;;;;;;;13.45;100.00;100751.03;5146259;27;20425;-46
2022/05/10 07:34:55;;;;;;;4.13;2.10;;;;;;;13.49;100.00;100757.56;5148833;27;20105;-47
2022/05/10 07:37:21;;;;;;;2.83;1.50;;;;;;;13.53;100.00;100755.34;5145147;27;20039;-46
2022/05/10 07:39:46;;;;;;;2.45;1.85;;;;;;;13.49;100.00;100757.56;5145093;27;20034;-48
2022/05/10 07:42:11;;;;;;;6.40;2.22;;;;;;;13.43;100.00;100755.72;5146777;27;20030;-46
2022/05/10 07:44:36;;;;;;;3.05;1.95;;;;;;;13.49;100.00;100759.41;5149771;27;20022;-48
2022/05/10 07:47:03;;;;;;;2.03;1.77;;;;;;;13.57;100.00;100761.06;5149683;27;20054;-48
2022/05/10 07:49:28;;;;;;;4.13;1.90;;;;;;;13.61;100.00;100767.63;5149060;27;20050;-47
2022/05/10 07:51:54;;;;;;;2.58;1.50;;;;;;;13.65;100.00;100767.00;5144088;27;20062;-47
2022/05/10 07:54:20;;;;;;;3.22;1.35;;;;;;;13.61;100.00;100765.78;5141001;27;20035;-45
2022/05/10 07:56:45;;;;;;;4.68;1.42;;;;;;;13.57;100.00;100772.53;5149400;27;20055;-45
2022/05/10 07:59:12;;;;;;;3.25;1.92;;;;;;;13.57;100.00;100775.19;5149438;27;20113;-52
2022/05/10 08:01:37;;;;;;;3.30;1.25;;;;;;;13.59;100.00;100778.47;5150826;27;20057;-50
2022/05/10 08:04:04;;;;;;;6.40;2.05;;;;;;;13.59;100.00;100767.84;5139830;27;20059;-46
2022/05/10 08:06:30;;;;;;;3.42;2.65;;;;;;;13.60;100.00;100774.78;5150128;27;20497;-47
2022/05/10 08:08:55;;;;;;;5.65;1.17;;;;;;;13.57;100.00;100779.72;5146327;27;20034;-53
2022/05/10 08:11:21;;;;;;;2.35;1.70;;;;;;;13.59;100.00;100778.47;5148433;27;20078;-47
2022/05/10 08:13:47;;;;;;;0.88;0.88;;;;;;;13.64;100.00;100770.69;5147027;27;20042;-51
2022/05/10 08:16:13;;;;;;;1.27;1.00;;;;;;;13.74;100.00;100765.78;5148897;27;20034;-46
2022/05/10 08:18:40;;;;;;;1.52;1.30;;;;;;;13.88;100.00;100771.13;5146345;27;20062;-44
2022/05/10 08:21:06;;;;;;;3.03;1.48;;;;;;;13.93;100.00;100773.97;5146874;27;20022;-47
2022/05/10 08:23:33;;;;;;;4.35;2.17;;;;;;;14.00;100.00;100777.47;5143690;27;20418;-48
2022/05/10 08:26:00;;;;;;;5.40;2.25;;;;;;;14.02;100.00;100777.25;5149040;27;20027;-47
2022/05/10 08:28:28;;;;;;;9.10;1.50;;;;;;;13.94;100.00;100781.78;5147879;27;20502;-50
2022/05/10 08:30:54;;;;;;;1.70;1.13;;;;;;;13.91;100.00;100779.53;5145643;27;20034;-50
2022/05/10 08:33:25;;;;;;;3.70;1.05;;;;;;;13.92;100.00;100783.84;5130057;27;20023;-54
2022/05/10 08:35:53;;;;;;;1.25;1.02;;;;;;;13.88;100.00;100793.25;5130801;27;20081;-49
2022/05/10 08:38:18;;;;;;;1.35;1.13;;;;;;;13.80;100.00;100800.66;5148340;27;20650;-50
2022/05/10 08:41:00;;;;;;;2.92;1.73;;;;;;;13.82;100.00;100801.25;5146028;27;20035;-50
2022/05/10 08:43:40;;;;;;;;;;;;;;;13.88;100.00;100797.78;5146636;27;20054;-52
2022/05/10 08:46:09;;;;;;;1.52;0.55;;;;;;;13.94;100.00;100792.44;5140016;27;19926;-49
2022/05/10 08:48:34;;;;;;;1.77;0.50;;;;;;;14.06;100.00;100789.97;5149895;27;20052;-51
2022/05/10 08:51:01;;;;;;;0.55;0.30;;;;;;;14.15;100.00;100787.94;5150152;27;20030;-52
2022/05/10 08:53:27;;;;;;;1.13;0.90;;;;;;;14.22;100.00;100787.91;5130326;27;20123;-48
2022/05/10 08:56:26;;;;;;;1.05;0.40;;;;;;;14.28;100.00;100782.56;5148780;27;20032;-54
2022/05/10 08:58:59;;;;;;;1.70;0.20;;;;;;;14.26;100.00;100784.63;5141905;27;20038;-52
2022/05/10 09:01:31;;;;;;;2.10;0.38;;;;;;;14.10;100.00;100785.88;5140625;27;20022;-51
2022/05/10 09:04:01;;;;;;;1.48;0.60;;;;;;;14.02;100.00;100791.41;5150401;27;20061;-50
2022/05/10 09:06:38;;;;;;;3.65;1.75;;;;;;;14.05;100.00;100784.84;5144309;27;20054;-48
2022/05/10 09:09:22;;;;;;;1.20;0.35;;;;;;;13.92;100.00;100791.84;5145491;27;20076;-54
2022/05/10 09:12:17;;;;;;;3.47;0.80;;;;;;;13.83;100.00;100786.91;5144264;27;20034;-51
2022/05/10 09:14:47;;;;;;;0.52;0.40;;;;;;;13.83;100.00;100786.91;5139229;27;20369;-47
2022/05/10 09:17:15;;;;;;;2.40;0.25;;;;;;;13.85;100.00;100788.34;5148414;27;20019;-50
2022/05/10 09:19:43;;;;;;;0.32;0.10;;;;;;;13.88;100.00;100787.09;5149437;27;20027;-51
2022/05/10 09:22:20;;;;;;;1.20;1.13;;;;;;;13.89;100.00;100788.75;5147655;27;20082;-55
2022/05/10 09:24:49;;;;;;;1.73;0.10;;;;;;;13.87;100.00;100791.63;5127861;27;20102;-52
2022/05/10 09:27:16;;;;;;;1.08;0.73;;;;;;;13.89;100.00;100788.75;5140175;27;20346;-48
2022/05/10 09:29:47;;;;;;;0.52;0.43;;;;;;;13.93;100.00;100790.78;5149569;27;20035;-53
2022/05/10 09:35:19;;;;;;;0.75;0.20;;;;;;;13.81;100.00;100780.94;5143273;27;20551;-52
2022/05/10 09:38:00;;;;;;;0.63;0.63;;;;;;;13.75;100.00;100775.41;5140323;27;20110;-53
2022/05/10 09:40:34;;;;;;;2.38;0.13;;;;;;;13.72;100.00;100775.00;5143696;27;20030;-48
2022/05/10 09:43:15;;;;;;;0.80;0.38;;;;;;;13.77;100.00;100779.72;5143932;27;20523;-50
2022/05/10 09:45:41;;;;;;;0.73;0.25;;;;;;;13.84;100.00;100768.06;5140358;27;20084;-56
2022/05/10 09:48:09;;;;;;;0.35;0.32;;;;;;;13.91;100.00;100768.03;5134624;27;20031;-50
2022/05/10 09:50:39;;;;;;;1.55;0.28;;;;;;;14.00;100.00;100769.47;5144580;27;20483;-54
2022/05/10 09:53:19;;;;;;;0.60;0.60;;;;;;;14.13;100.00;100774.78;5141143;27;20035;-50
2022/05/10 09:56:03;;;;;;;0.57;0.28;;;;;;;14.16;100.00;100778.88;5149898;27;20163;-53
2022/05/10 09:58:30;;;;;;;0.13;0.13;;;;;;;14.11;100.00;100774.16;5122207;27;20067;-53
2022/05/10 10:00:58;;;;;;;0.20;0.15;;;;;;;14.06;100.00;100765.97;5142249;27;20062;-52
2022/05/10 10:03:31;;;;;;;1.17;0.22;;;;;;;14.08;100.00;100774.59;5136639;27;20395;-53
2022/05/10 10:06:13;;;;;;;0.20;0.10;;;;;;;14.15;100.00;100774.59;5135385;27;20382;-52
2022/05/10 10:08:49;;;;;;;;;;;;;;;14.27;100.00;100772.09;5148439;27;20030;-54
2022/05/10 10:11:21;;;;;;;0.35;0.10;;;;;;;14.33;100.00;100768.63;5142345;27;19946;-49
2022/05/10 10:13:50;;;;;;;0.32;0.32;;;;;;;14.35;100.00;100775.38;5145568;27;20069;-58
2022/05/10 10:16:21;;;;;;;0.40;0.22;;;;;;;14.27;100.00;100764.09;5150611;27;20027;-51
2022/05/10 10:18:51;;;;;;;1.25;0.45;;;;;;;14.27;100.00;100758.75;5152320;27;20408;-60
2022/05/10 10:21:24;;;;;;;0.45;0.25;;;;;;;14.18;100.00;100772.31;5151987;27;20639;-62
2022/05/10 10:23:58;;;;;;;0.80;0.40;;;;;;;14.12;100.00;100772.31;5131321;27;20047;-51
2022/05/10 10:26:36;;;;;;;0.38;0.30;;;;;;;14.18;100.00;100771.50;5152516;27;20037;-52
2022/05/10 10:29:10;;;;;;;0.20;0.20;;;;;;;14.35;100.00;100774.53;5148284;27;20378;-58
2022/05/10 10:31:41;;;;;;;6.30;0.50;;;;;;;14.53;100.00;100769.41;5144857;27;20132;-51
2022/05/10 10:34:26;;;;;;;0.10;0.10;;;;;;;14.58;100.00;100763.44;5140551;27;20026;-51
2022/05/10 10:37:04;;;;;;;0.57;0.30;;;;;;;14.39;100.00;100781.09;5148552;27;20035;-52
2022/05/10 10:39:37;;;;;;;1.55;0.10;;;;;;;14.01;100.00;100824.41;5152612;27;20402;-63
2022/05/10 10:42:12;;;;;;;0.77;0.28;;;;;;;12.68;100.00;100816.06;5150388;27;20031;-57
2022/05/10 10:44:43;;;;;;;1.33;0.10;;;;;;;11.95;100.00;100824.34;5151881;27;20031;-57
2022/05/10 10:47:31;;;;;;;0.65;0.25;;;;;;;11.56;100.00;100820.28;5152035;27;20077;-54
2022/05/10 10:50:09;;;;;;;2.40;0.00;;;;;;;11.57;100.00;100823.75;5148203;27;20126;-58
2022/05/10 10:52:35;;;;;;;2.00;0.82;;;;;;;11.93;100.00;100826.38;5145818;27;20041;-57
2022/05/10 10:55:04;;;;;;;3.13;0.30;;;;;;;11.86;100.00;100825.50;5127332;27;20027;-58
2022/05/10 10:58:03;;;;;;;1.80;0.15;;;;;;;12.03;100.00;100825.22;5146510;27;20479;-56
2022/05/10 11:00:35;;;;;;;0.52;0.10;;;;;;;12.09;100.00;100825.28;5147735;27;20479;-51
2022/05/10 11:03:19;;;;;;;1.17;0.20;;;;;;;12.30;100.00;100815.63;5148205;27;20034;-55
2022/05/10 11:06:18;;;;;;;3.38;0.80;;;;;;;12.46;100.00;100796.69;5146881;27;20030;-51
2022/05/10 11:09:05;;;;;;;2.88;0.17;;;;;;;12.83;100.00;100803.44;5147949;27;20035;-55
2022/05/10 11:11:58;;;;;;;4.60;0.00;;;;;;;12.96;100.00;100800.03;5145893;27;20050;-53
2022/05/10 11:14:56;;;;;;;0.98;0.35;;;;;;;13.01;100.00;100802.06;5145847;27;20038;-56
2022/05/10 11:17:37;;;;;;;2.00;1.27;;;;;;;12.94;100.00;100795.91;5143857;27;20022;-51
2022/05/10 11:20:42;;;;;;;5.45;0.38;;;;;;;12.85;100.00;100777.44;5142956;27;20026;-51
2022/05/10 11:23:07;;;;;;;3.33;0.17;;;;;;;12.91;100.00;100775.84;5146644;27;20450;-47
2022/05/10 11:25:42;;;;;;;3.90;0.52;;;;;;;12.99;100.00;100777.50;5151981;27;20033;-53
2022/05/10 11:28:07;;;;;;;2.55;0.20;;;;;;;13.28;100.00;100766.56;5148500;27;20505;-47
2022/05/10 11:30:39;;;;;;;1.13;0.22;;;;;;;13.70;100.00;100761.88;5146817;27;20066;-49
2022/05/10 11:33:17;;;;;;;2.03;0.00;;;;;;;14.18;100.00;100756.31;5146619;27;20046;-48
2022/05/10 11:35:55;;;;;;;1.67;0.10;;;;;;;14.57;100.00;100751.13;5140033;27;20031;-49